sensor_id;sensor_type;location;lat;lon;timestamp;pressure;altitude;pressure_sealevel;temperature;humidity
76794;BME280;65745;50.278;18.192;2023-02-27T00:00:41;100250.48;;;0.33;73.34
76794;BME280;65745;50.278;18.192;2023-02-27T00:03:27;100252.05;;;0.33;73.42
76794;BME280;65745;50.278;18.192;2023-02-27T00:06:00;100249.15;;;0.35;72.49
76794;BME280;65745;50.278;18.192;2023-02-27T00:08:32;100252.23;;;0.36;72.23
76794;BME280;65745;50.278;18.192;2023-02-27T00:11:05;100252.90;;;0.36;72.21
76794;BME280;65745;50.278;18.192;2023-02-27T00:13:37;100253.64;;;0.34;71.97
76794;BME280;65745;50.278;18.192;2023-02-27T00:16:09;100254.54;;;0.30;71.83
76794;BME280;65745;50.278;18.192;2023-02-27T00:18:42;100255.50;;;0.26;71.69
76794;BME280;65745;50.278;18.192;2023-02-27T00:21:15;100258.37;;;0.26;72.05
76794;BME280;65745;50.278;18.192;2023-02-27T00:23:47;100256.41;;;0.25;71.93
76794;BME280;65745;50.278;18.192;2023-02-27T00:26:21;100258.40;;;0.24;71.76
76794;BME280;65745;50.278;18.192;2023-02-27T00:28:53;100254.69;;;0.24;71.67
76794;BME280;65745;50.278;18.192;2023-02-27T00:31:26;100253.16;;;0.22;71.70
76794;BME280;65745;50.278;18.192;2023-02-27T00:33:59;100257.71;;;0.22;71.64
76794;BME280;65745;50.278;18.192;2023-02-27T00:36:31;100259.23;;;0.21;71.59
76794;BME280;65745;50.278;18.192;2023-02-27T00:39:05;100258.33;;;0.21;71.36
76794;BME280;65745;50.278;18.192;2023-02-27T00:41:37;100257.30;;;0.20;71.16
76794;BME280;65745;50.278;18.192;2023-02-27T00:44:09;100264.55;;;0.20;70.98
76794;BME280;65745;50.278;18.192;2023-02-27T00:46:42;100262.91;;;0.20;70.73
76794;BME280;65745;50.278;18.192;2023-02-27T00:49:15;100261.48;;;0.22;70.98
76794;BME280;65745;50.278;18.192;2023-02-27T00:51:48;100259.83;;;0.25;71.19
76794;BME280;65745;50.278;18.192;2023-02-27T00:54:20;100261.05;;;0.31;71.19
76794;BME280;65745;50.278;18.192;2023-02-27T00:56:52;100262.08;;;0.36;71.46
76794;BME280;65745;50.278;18.192;2023-02-27T00:59:24;100266.39;;;0.40;71.21
76794;BME280;65745;50.278;18.192;2023-02-27T01:01:56;100264.20;;;0.42;70.86
76794;BME280;65745;50.278;18.192;2023-02-27T01:04:31;100264.60;;;0.44;71.01
76794;BME280;65745;50.278;18.192;2023-02-27T01:07:03;100268.40;;;0.45;70.70
76794;BME280;65745;50.278;18.192;2023-02-27T01:09:38;100268.83;;;0.46;70.55
76794;BME280;65745;50.278;18.192;2023-02-27T01:12:10;100270.30;;;0.45;70.77
76794;BME280;65745;50.278;18.192;2023-02-27T01:14:43;100275.85;;;0.45;70.70
76794;BME280;65745;50.278;18.192;2023-02-27T01:17:15;100275.19;;;0.45;70.84
76794;BME280;65745;50.278;18.192;2023-02-27T01:19:47;100280.10;;;0.42;71.05
76794;BME280;65745;50.278;18.192;2023-02-27T01:22:19;100278.09;;;0.43;71.14
76794;BME280;65745;50.278;18.192;2023-02-27T01:24:53;100280.72;;;0.44;71.30
76794;BME280;65745;50.278;18.192;2023-02-27T01:27:25;100279.92;;;0.45;71.30
76794;BME280;65745;50.278;18.192;2023-02-27T01:29:58;100278.38;;;0.50;71.98
76794;BME280;65745;50.278;18.192;2023-02-27T01:32:30;100281.88;;;0.54;72.32
76794;BME280;65745;50.278;18.192;2023-02-27T01:35:03;100278.33;;;0.59;72.20
76794;BME280;65745;50.278;18.192;2023-02-27T01:37:36;100282.77;;;0.62;71.94
76794;BME280;65745;50.278;18.192;2023-02-27T01:40:10;100284.73;;;0.64;71.61
76794;BME280;65745;50.278;18.192;2023-02-27T01:42:43;100285.08;;;0.61;71.47
76794;BME280;65745;50.278;18.192;2023-02-27T01:45:34;100287.30;;;0.62;71.41
76794;BME280;65745;50.278;18.192;2023-02-27T01:48:13;100290.25;;;0.63;71.54
76794;BME280;65745;50.278;18.192;2023-02-27T01:50:52;100288.59;;;0.63;71.36
76794;BME280;65745;50.278;18.192;2023-02-27T01:53:27;100294.27;;;0.62;71.41
76794;BME280;65745;50.278;18.192;2023-02-27T01:56:03;100297.40;;;0.61;71.14
76794;BME280;65745;50.278;18.192;2023-02-27T01:58:37;100295.87;;;0.58;71.58
76794;BME280;65745;50.278;18.192;2023-02-27T02:01:10;100297.33;;;0.57;71.74
76794;BME280;65745;50.278;18.192;2023-02-27T02:03:45;100302.48;;;0.55;71.69
76794;BME280;65745;50.278;18.192;2023-02-27T02:06:17;100304.75;;;0.54;71.93
76794;BME280;65745;50.278;18.192;2023-02-27T02:08:52;100306.06;;;0.53;71.62
76794;BME280;65745;50.278;18.192;2023-02-27T02:11:26;100304.80;;;0.57;72.10
76794;BME280;65745;50.278;18.192;2023-02-27T02:14:00;100304.44;;;0.62;72.51
76794;BME280;65745;50.278;18.192;2023-02-27T02:16:50;100308.34;;;0.65;72.87
76794;BME280;65745;50.278;18.192;2023-02-27T02:19:59;100309.55;;;0.70;72.71
76794;BME280;65745;50.278;18.192;2023-02-27T02:23:12;100311.27;;;0.75;72.60
76794;BME280;65745;50.278;18.192;2023-02-27T02:26:13;100312.13;;;0.75;72.29
76794;BME280;65745;50.278;18.192;2023-02-27T02:29:12;100315.04;;;0.76;72.09
76794;BME280;65745;50.278;18.192;2023-02-27T02:41:16;100334.93;;;0.64;71.70
76794;BME280;65745;50.278;18.192;2023-02-27T02:43:58;100335.40;;;0.61;71.34
76794;BME280;65745;50.278;18.192;2023-02-27T02:46:37;100337.00;;;0.57;71.37
76794;BME280;65745;50.278;18.192;2023-02-27T02:49:20;100343.39;;;0.54;71.10
76794;BME280;65745;50.278;18.192;2023-02-27T02:52:01;100344.60;;;0.49;71.27
76794;BME280;65745;50.278;18.192;2023-02-27T02:54:39;100349.38;;;0.45;71.49
76794;BME280;65745;50.278;18.192;2023-02-27T02:57:16;100351.15;;;0.43;71.54
76794;BME280;65745;50.278;18.192;2023-02-27T02:59:54;100348.77;;;0.40;71.25
76794;BME280;65745;50.278;18.192;2023-02-27T03:02:33;100349.57;;;0.39;71.63
76794;BME280;65745;50.278;18.192;2023-02-27T03:05:09;100353.26;;;0.41;72.06
76794;BME280;65745;50.278;18.192;2023-02-27T03:07:46;100353.87;;;0.46;72.38
76794;BME280;65745;50.278;18.192;2023-02-27T03:10:24;100356.61;;;0.54;72.70
76794;BME280;65745;50.278;18.192;2023-02-27T03:13:01;100359.11;;;0.58;72.11
76794;BME280;65745;50.278;18.192;2023-02-27T03:15:37;100360.39;;;0.60;71.94
76794;BME280;65745;50.278;18.192;2023-02-27T03:18:15;100362.09;;;0.60;71.60
76794;BME280;65745;50.278;18.192;2023-02-27T03:20:53;100362.88;;;0.59;71.29
76794;BME280;65745;50.278;18.192;2023-02-27T03:23:26;100359.75;;;0.55;71.24
76794;BME280;65745;50.278;18.192;2023-02-27T03:26:01;100363.88;;;0.54;71.02
76794;BME280;65745;50.278;18.192;2023-02-27T03:28:38;100364.07;;;0.51;70.84
76794;BME280;65745;50.278;18.192;2023-02-27T03:31:15;100362.48;;;0.51;70.73
76794;BME280;65745;50.278;18.192;2023-02-27T03:33:54;100357.16;;;0.47;70.78
76794;BME280;65745;50.278;18.192;2023-02-27T03:36:39;100354.84;;;0.45;70.76
76794;BME280;65745;50.278;18.192;2023-02-27T03:39:23;100356.17;;;0.45;70.77
76794;BME280;65745;50.278;18.192;2023-02-27T03:42:05;100357.89;;;0.42;70.76
76794;BME280;65745;50.278;18.192;2023-02-27T03:45:17;100354.16;;;0.37;70.56
76794;BME280;65745;50.278;18.192;2023-02-27T03:47:51;100356.92;;;0.36;70.67
76794;BME280;65745;50.278;18.192;2023-02-27T03:50:24;100357.64;;;0.31;70.34
76794;BME280;65745;50.278;18.192;2023-02-27T03:52:57;100358.55;;;0.29;70.26
76794;BME280;65745;50.278;18.192;2023-02-27T03:55:33;100360.64;;;0.30;70.14
76794;BME280;65745;50.278;18.192;2023-02-27T03:58:07;100361.81;;;0.30;70.16
76794;BME280;65745;50.278;18.192;2023-02-27T04:00:39;100363.70;;;0.26;69.89
76794;BME280;65745;50.278;18.192;2023-02-27T04:03:12;100365.35;;;0.25;70.09
76794;BME280;65745;50.278;18.192;2023-02-27T04:05:44;100370.02;;;0.24;70.07
76794;BME280;65745;50.278;18.192;2023-02-27T04:08:31;100370.47;;;0.21;70.31
76794;BME280;65745;50.278;18.192;2023-02-27T04:11:30;100372.30;;;0.18;70.26
76794;BME280;65745;50.278;18.192;2023-02-27T04:14:22;100376.71;;;0.16;70.20
76794;BME280;65745;50.278;18.192;2023-02-27T04:17:11;100373.79;;;0.17;70.62
76794;BME280;65745;50.278;18.192;2023-02-27T04:23:03;100376.38;;;0.33;71.50
76794;BME280;65745;50.278;18.192;2023-02-27T04:25:54;100379.06;;;0.37;71.46
76794;BME280;65745;50.278;18.192;2023-02-27T04:28:35;100384.16;;;0.40;71.13
76794;BME280;65745;50.278;18.192;2023-02-27T04:31:19;100385.84;;;0.40;70.90
76794;BME280;65745;50.278;18.192;2023-02-27T04:33:58;100383.52;;;0.40;71.07
76794;BME280;65745;50.278;18.192;2023-02-27T04:36:36;100388.33;;;0.41;71.17
76794;BME280;65745;50.278;18.192;2023-02-27T04:39:18;100390.67;;;0.46;70.93
76794;BME280;65745;50.278;18.192;2023-02-27T04:41:56;100391.15;;;0.46;70.70
76794;BME280;65745;50.278;18.192;2023-02-27T04:44:33;100393.88;;;0.43;70.53
76794;BME280;65745;50.278;18.192;2023-02-27T04:47:09;100395.95;;;0.42;70.52
76794;BME280;65745;50.278;18.192;2023-02-27T04:49:45;100397.66;;;0.41;70.56
76794;BME280;65745;50.278;18.192;2023-02-27T04:52:22;100400.44;;;0.38;70.70
76794;BME280;65745;50.278;18.192;2023-02-27T04:55:01;100402.79;;;0.35;70.37
76794;BME280;65745;50.278;18.192;2023-02-27T04:57:39;100404.17;;;0.33;70.53
76794;BME280;65745;50.278;18.192;2023-02-27T05:00:15;100406.64;;;0.32;70.50
76794;BME280;65745;50.278;18.192;2023-02-27T05:02:53;100412.02;;;0.31;70.38
76794;BME280;65745;50.278;18.192;2023-02-27T05:05:31;100415.91;;;0.31;70.59
76794;BME280;65745;50.278;18.192;2023-02-27T05:08:08;100414.73;;;0.31;70.31
76794;BME280;65745;50.278;18.192;2023-02-27T05:10:46;100417.04;;;0.33;70.58
76794;BME280;65745;50.278;18.192;2023-02-27T05:13:21;100415.52;;;0.30;70.52
76794;BME280;65745;50.278;18.192;2023-02-27T05:16:01;100416.64;;;0.29;70.37
76794;BME280;65745;50.278;18.192;2023-02-27T05:18:34;100416.77;;;0.26;70.54
76794;BME280;65745;50.278;18.192;2023-02-27T05:21:12;100416.95;;;0.27;70.87
76794;BME280;65745;50.278;18.192;2023-02-27T05:23:52;100416.36;;;0.28;71.19
76794;BME280;65745;50.278;18.192;2023-02-27T05:26:34;100420.91;;;0.30;71.82
76794;BME280;65745;50.278;18.192;2023-02-27T05:29:18;100426.88;;;0.35;71.91
76794;BME280;65745;50.278;18.192;2023-02-27T05:32:00;100427.66;;;0.42;71.32
76794;BME280;65745;50.278;18.192;2023-02-27T05:34:41;100431.40;;;0.47;70.92
76794;BME280;65745;50.278;18.192;2023-02-27T05:37:17;100433.10;;;0.50;70.64
76794;BME280;65745;50.278;18.192;2023-02-27T05:39:53;100429.16;;;0.47;70.53
76794;BME280;65745;50.278;18.192;2023-02-27T05:42:29;100433.94;;;0.45;70.38
76794;BME280;65745;50.278;18.192;2023-02-27T05:45:05;100434.85;;;0.46;70.24
76794;BME280;65745;50.278;18.192;2023-02-27T05:47:38;100440.86;;;0.42;70.32
76794;BME280;65745;50.278;18.192;2023-02-27T05:50:15;100443.11;;;0.37;70.20
76794;BME280;65745;50.278;18.192;2023-02-27T05:52:49;100449.36;;;0.32;70.37
76794;BME280;65745;50.278;18.192;2023-02-27T05:55:25;100453.59;;;0.34;70.31
76794;BME280;65745;50.278;18.192;2023-02-27T05:58:03;100455.30;;;0.35;70.24
76794;BME280;65745;50.278;18.192;2023-02-27T06:00:39;100453.85;;;0.33;70.28
76794;BME280;65745;50.278;18.192;2023-02-27T06:03:14;100456.67;;;0.37;70.29
76794;BME280;65745;50.278;18.192;2023-02-27T06:05:47;100456.97;;;0.37;70.17
76794;BME280;65745;50.278;18.192;2023-02-27T06:08:23;100459.09;;;0.38;70.34
76794;BME280;65745;50.278;18.192;2023-02-27T06:10:55;100459.92;;;0.40;70.38
76794;BME280;65745;50.278;18.192;2023-02-27T06:13:28;100464.83;;;0.40;70.19
76794;BME280;65745;50.278;18.192;2023-02-27T06:16:00;100462.20;;;0.39;70.31
76794;BME280;65745;50.278;18.192;2023-02-27T06:18:32;100464.14;;;0.40;70.38
76794;BME280;65745;50.278;18.192;2023-02-27T06:21:05;100467.42;;;0.43;70.58
76794;BME280;65745;50.278;18.192;2023-02-27T06:23:37;100472.20;;;0.44;70.51
76794;BME280;65745;50.278;18.192;2023-02-27T06:26:10;100472.53;;;0.47;70.56
76794;BME280;65745;50.278;18.192;2023-02-27T06:28:44;100471.04;;;0.50;70.92
76794;BME280;65745;50.278;18.192;2023-02-27T06:31:16;100469.66;;;0.62;70.95
76794;BME280;65745;50.278;18.192;2023-02-27T06:33:48;100470.96;;;0.71;71.09
76794;BME280;65745;50.278;18.192;2023-02-27T06:36:21;100474.27;;;0.77;71.29
76794;BME280;65745;50.278;18.192;2023-02-27T06:39:01;100479.93;;;0.83;71.02
76794;BME280;65745;50.278;18.192;2023-02-27T06:41:35;100483.54;;;0.86;70.77
76794;BME280;65745;50.278;18.192;2023-02-27T06:44:07;100479.42;;;0.90;70.47
76794;BME280;65745;50.278;18.192;2023-02-27T06:46:39;100484.81;;;0.92;70.47
76794;BME280;65745;50.278;18.192;2023-02-27T06:49:12;100485.73;;;0.88;70.36
76794;BME280;65745;50.278;18.192;2023-02-27T06:51:44;100489.09;;;0.88;70.16
76794;BME280;65745;50.278;18.192;2023-02-27T06:54:17;100489.05;;;0.88;70.45
76794;BME280;65745;50.278;18.192;2023-02-27T06:56:49;100489.92;;;0.85;70.36
76794;BME280;65745;50.278;18.192;2023-02-27T06:59:22;100496.32;;;0.82;70.44
76794;BME280;65745;50.278;18.192;2023-02-27T07:01:54;100495.86;;;0.80;70.34
76794;BME280;65745;50.278;18.192;2023-02-27T07:04:29;100503.13;;;0.77;70.34
76794;BME280;65745;50.278;18.192;2023-02-27T07:07:01;100505.20;;;0.75;69.77
76794;BME280;65745;50.278;18.192;2023-02-27T07:09:53;100507.88;;;0.77;70.03
76794;BME280;65745;50.278;18.192;2023-02-27T07:12:26;100512.25;;;0.77;70.19
76794;BME280;65745;50.278;18.192;2023-02-27T07:14:59;100515.56;;;0.76;70.12
76794;BME280;65745;50.278;18.192;2023-02-27T07:17:32;100512.73;;;0.76;70.41
76794;BME280;65745;50.278;18.192;2023-02-27T07:20:07;100511.31;;;0.78;70.40
76794;BME280;65745;50.278;18.192;2023-02-27T07:22:41;100509.52;;;0.79;70.14
76794;BME280;65745;50.278;18.192;2023-02-27T07:25:13;100509.37;;;0.82;70.38
76794;BME280;65745;50.278;18.192;2023-02-27T07:27:46;100515.75;;;0.89;71.04
76794;BME280;65745;50.278;18.192;2023-02-27T07:30:20;100514.35;;;0.98;71.48
76794;BME280;65745;50.278;18.192;2023-02-27T07:32:57;100512.79;;;1.05;71.77
76794;BME280;65745;50.278;18.192;2023-02-27T07:35:34;100512.04;;;1.09;71.37
76794;BME280;65745;50.278;18.192;2023-02-27T07:38:07;100513.59;;;1.14;71.18
76794;BME280;65745;50.278;18.192;2023-02-27T07:40:40;100520.34;;;1.18;71.09
76794;BME280;65745;50.278;18.192;2023-02-27T07:43:13;100525.66;;;1.20;71.23
76794;BME280;65745;50.278;18.192;2023-02-27T07:45:46;100523.14;;;1.20;70.98
76794;BME280;65745;50.278;18.192;2023-02-27T07:48:21;100520.13;;;1.20;71.06
76794;BME280;65745;50.278;18.192;2023-02-27T07:50:54;100525.21;;;1.21;70.70
76794;BME280;65745;50.278;18.192;2023-02-27T07:53:27;100523.67;;;1.20;70.75
76794;BME280;65745;50.278;18.192;2023-02-27T07:56:00;100531.68;;;1.21;70.58
76794;BME280;65745;50.278;18.192;2023-02-27T07:58:34;100532.90;;;1.21;70.90
76794;BME280;65745;50.278;18.192;2023-02-27T08:01:06;100537.16;;;1.19;70.97
76794;BME280;65745;50.278;18.192;2023-02-27T08:03:39;100537.10;;;1.21;70.65
76794;BME280;65745;50.278;18.192;2023-02-27T08:06:12;100544.91;;;1.20;71.25
76794;BME280;65745;50.278;18.192;2023-02-27T08:08:44;100543.05;;;1.23;71.54
76794;BME280;65745;50.278;18.192;2023-02-27T08:11:17;100547.64;;;1.31;71.95
76794;BME280;65745;50.278;18.192;2023-02-27T08:13:49;100546.64;;;1.39;72.28
76794;BME280;65745;50.278;18.192;2023-02-27T08:16:32;100547.14;;;1.44;71.79
76794;BME280;65745;50.278;18.192;2023-02-27T08:19:05;100550.95;;;1.48;71.31
76794;BME280;65745;50.278;18.192;2023-02-27T08:21:37;100551.59;;;1.47;71.37
76794;BME280;65745;50.278;18.192;2023-02-27T08:24:10;100554.66;;;1.45;71.01
76794;BME280;65745;50.278;18.192;2023-02-27T08:26:42;100556.08;;;1.46;71.24
76794;BME280;65745;50.278;18.192;2023-02-27T08:29:15;100558.68;;;1.49;70.90
76794;BME280;65745;50.278;18.192;2023-02-27T08:31:47;100562.66;;;1.50;70.84
76794;BME280;65745;50.278;18.192;2023-02-27T08:34:36;100562.95;;;1.49;71.09
76794;BME280;65745;50.278;18.192;2023-02-27T08:37:15;100566.23;;;1.53;71.13
76794;BME280;65745;50.278;18.192;2023-02-27T08:39:47;100568.57;;;1.54;71.09
76794;BME280;65745;50.278;18.192;2023-02-27T08:42:22;100572.63;;;1.59;71.00
76794;BME280;65745;50.278;18.192;2023-02-27T08:44:57;100576.67;;;1.64;70.88
76794;BME280;65745;50.278;18.192;2023-02-27T08:47:32;100581.63;;;1.70;70.93
76794;BME280;65745;50.278;18.192;2023-02-27T08:50:05;100587.10;;;1.75;70.76
76794;BME280;65745;50.278;18.192;2023-02-27T08:52:38;100588.16;;;1.79;70.75
76794;BME280;65745;50.278;18.192;2023-02-27T08:55:12;100588.14;;;1.84;71.07
76794;BME280;65745;50.278;18.192;2023-02-27T09:00:37;100591.39;;;2.02;71.64
76794;BME280;65745;50.278;18.192;2023-02-27T09:03:11;100588.46;;;2.15;71.55
76794;BME280;65745;50.278;18.192;2023-02-27T09:05:44;100592.42;;;2.34;71.63
76794;BME280;65745;50.278;18.192;2023-02-27T09:08:18;100602.92;;;2.55;71.48
76794;BME280;65745;50.278;18.192;2023-02-27T09:10:54;100607.64;;;2.62;70.79
76794;BME280;65745;50.278;18.192;2023-02-27T09:13:30;100609.48;;;2.65;70.50
76794;BME280;65745;50.278;18.192;2023-02-27T09:16:03;100610.96;;;2.63;70.66
76794;BME280;65745;50.278;18.192;2023-02-27T09:18:39;100609.08;;;2.61;70.27
76794;BME280;65745;50.278;18.192;2023-02-27T09:21:15;100616.39;;;2.58;70.47
76794;BME280;65745;50.278;18.192;2023-02-27T09:23:51;100612.66;;;2.58;69.92
76794;BME280;65745;50.278;18.192;2023-02-27T09:26:27;100612.46;;;2.61;70.06
76794;BME280;65745;50.278;18.192;2023-02-27T09:29:15;100610.05;;;2.60;69.96
76794;BME280;65745;50.278;18.192;2023-02-27T09:31:50;100612.41;;;2.57;69.91
76794;BME280;65745;50.278;18.192;2023-02-27T09:34:29;100617.86;;;2.49;70.07
76794;BME280;65745;50.278;18.192;2023-02-27T09:37:04;100616.01;;;2.39;70.49
76794;BME280;65745;50.278;18.192;2023-02-27T09:39:36;100611.31;;;2.24;70.57
76794;BME280;65745;50.278;18.192;2023-02-27T09:42:12;100614.84;;;2.21;71.08
76794;BME280;65745;50.278;18.192;2023-02-27T09:44:56;100615.21;;;2.27;71.48
76794;BME280;65745;50.278;18.192;2023-02-27T09:47:32;100620.43;;;2.34;72.08
76794;BME280;65745;50.278;18.192;2023-02-27T09:50:24;100618.41;;;2.39;72.43
76794;BME280;65745;50.278;18.192;2023-02-27T09:52:59;100617.61;;;2.45;73.18
76794;BME280;65745;50.278;18.192;2023-02-27T09:55:37;100607.71;;;2.47;73.21
76794;BME280;65745;50.278;18.192;2023-02-27T09:58:28;100621.39;;;2.62;73.09
76794;BME280;65745;50.278;18.192;2023-02-27T10:01:07;100624.14;;;2.62;72.49
76794;BME280;65745;50.278;18.192;2023-02-27T10:04:10;100631.00;;;2.58;72.23
76794;BME280;65745;50.278;18.192;2023-02-27T10:06:51;100639.20;;;2.52;72.37
76794;BME280;65745;50.278;18.192;2023-02-27T10:09:36;100633.84;;;2.49;72.36
76794;BME280;65745;50.278;18.192;2023-02-27T10:12:48;100628.86;;;2.54;72.08
76794;BME280;65745;50.278;18.192;2023-02-27T10:15:28;100626.16;;;2.56;71.90
76794;BME280;65745;50.278;18.192;2023-02-27T10:18:05;100625.49;;;2.57;71.73
76794;BME280;65745;50.278;18.192;2023-02-27T10:20:59;100627.33;;;2.59;71.96
76794;BME280;65745;50.278;18.192;2023-02-27T10:23:36;100630.88;;;2.69;72.07
76794;BME280;65745;50.278;18.192;2023-02-27T10:26:20;100627.02;;;2.84;71.97
76794;BME280;65745;50.278;18.192;2023-02-27T10:28:53;100624.43;;;2.94;72.21
76794;BME280;65745;50.278;18.192;2023-02-27T10:31:30;100628.55;;;3.14;72.27
76794;BME280;65745;50.278;18.192;2023-02-27T10:34:09;100626.86;;;3.39;72.32
76794;BME280;65745;50.278;18.192;2023-02-27T10:36:46;100621.57;;;3.62;72.20
76794;BME280;65745;50.278;18.192;2023-02-27T10:39:19;100620.86;;;3.76;71.96
76794;BME280;65745;50.278;18.192;2023-02-27T10:42:00;100621.96;;;3.98;71.75
76794;BME280;65745;50.278;18.192;2023-02-27T10:44:34;100622.59;;;4.18;71.62
76794;BME280;65745;50.278;18.192;2023-02-27T10:47:07;100621.36;;;4.38;71.48
76794;BME280;65745;50.278;18.192;2023-02-27T10:49:56;100618.90;;;4.52;70.76
76794;BME280;65745;50.278;18.192;2023-02-27T10:52:31;100618.09;;;4.65;70.88
76794;BME280;65745;50.278;18.192;2023-02-27T10:55:18;100621.60;;;4.83;70.58
76794;BME280;65745;50.278;18.192;2023-02-27T10:57:56;100622.47;;;4.98;69.38
76794;BME280;65745;50.278;18.192;2023-02-27T11:00:39;100614.54;;;5.07;68.29
76794;BME280;65745;50.278;18.192;2023-02-27T11:03:20;100609.88;;;5.16;68.32
76794;BME280;65745;50.278;18.192;2023-02-27T11:06:08;100603.86;;;5.18;66.75
76794;BME280;65745;50.278;18.192;2023-02-27T11:08:41;100605.73;;;5.27;67.04
76794;BME280;65745;50.278;18.192;2023-02-27T11:11:13;100597.60;;;5.35;66.85
76794;BME280;65745;50.278;18.192;2023-02-27T11:13:47;100597.64;;;5.43;67.44
76794;BME280;65745;50.278;18.192;2023-02-27T11:16:20;100593.42;;;5.34;66.20
76794;BME280;65745;50.278;18.192;2023-02-27T11:18:53;100595.56;;;5.09;65.21
76794;BME280;65745;50.278;18.192;2023-02-27T11:21:28;100598.89;;;4.82;66.74
76794;BME280;65745;50.278;18.192;2023-02-27T11:24:03;100598.31;;;4.59;66.14
76794;BME280;65745;50.278;18.192;2023-02-27T11:26:39;100603.56;;;4.34;66.02
76794;BME280;65745;50.278;18.192;2023-02-27T11:29:17;100606.58;;;4.15;66.06
76794;BME280;65745;50.278;18.192;2023-02-27T11:31:53;100601.42;;;3.99;66.58
76794;BME280;65745;50.278;18.192;2023-02-27T11:34:29;100602.66;;;3.85;66.29
76794;BME280;65745;50.278;18.192;2023-02-27T11:37:05;100600.54;;;3.72;66.42
76794;BME280;65745;50.278;18.192;2023-02-27T11:39:48;100598.80;;;3.63;66.06
76794;BME280;65745;50.278;18.192;2023-02-27T11:42:43;100600.85;;;3.54;66.60
76794;BME280;65745;50.278;18.192;2023-02-27T11:45:37;100602.16;;;3.48;66.67
76794;BME280;65745;50.278;18.192;2023-02-27T11:48:34;100596.07;;;3.48;67.00
76794;BME280;65745;50.278;18.192;2023-02-27T11:51:24;100595.52;;;3.54;66.80
76794;BME280;65745;50.278;18.192;2023-02-27T11:54:14;100595.45;;;3.53;66.14
76794;BME280;65745;50.278;18.192;2023-02-27T11:56:49;100591.42;;;3.56;65.89
76794;BME280;65745;50.278;18.192;2023-02-27T11:59:36;100592.99;;;3.65;65.67
76794;BME280;65745;50.278;18.192;2023-02-27T12:02:13;100598.14;;;3.84;65.97
76794;BME280;65745;50.278;18.192;2023-02-27T12:04:51;100596.25;;;3.98;64.66
76794;BME280;65745;50.278;18.192;2023-02-27T12:07:28;100599.30;;;4.13;64.81
76794;BME280;65745;50.278;18.192;2023-02-27T12:10:10;100599.71;;;4.29;64.15
76794;BME280;65745;50.278;18.192;2023-02-27T12:12:48;100597.73;;;4.61;64.73
76794;BME280;65745;50.278;18.192;2023-02-27T12:15:28;100596.17;;;5.05;64.72
76794;BME280;65745;50.278;18.192;2023-02-27T12:18:09;100591.47;;;5.52;64.16
76794;BME280;65745;50.278;18.192;2023-02-27T12:20:51;100591.02;;;5.97;63.23
76794;BME280;65745;50.278;18.192;2023-02-27T12:23:30;100591.26;;;6.19;61.63
76794;BME280;65745;50.278;18.192;2023-02-27T12:26:09;100589.29;;;6.24;61.00
76794;BME280;65745;50.278;18.192;2023-02-27T12:28:51;100592.67;;;6.27;61.21
76794;BME280;65745;50.278;18.192;2023-02-27T12:31:30;100595.69;;;6.47;60.82
76794;BME280;65745;50.278;18.192;2023-02-27T12:34:14;100596.54;;;6.44;59.90
76794;BME280;65745;50.278;18.192;2023-02-27T12:36:48;100606.28;;;6.12;59.42
76794;BME280;65745;50.278;18.192;2023-02-27T12:39:24;100610.94;;;5.69;60.24
76794;BME280;65745;50.278;18.192;2023-02-27T12:42:27;100614.72;;;5.30;59.84
76794;BME280;65745;50.278;18.192;2023-02-27T12:45:24;100624.43;;;4.88;59.68
76794;BME280;65745;50.278;18.192;2023-02-27T12:48:07;100623.70;;;4.65;60.44
76794;BME280;65745;50.278;18.192;2023-02-27T12:50:55;100628.66;;;4.34;60.78
76794;BME280;65745;50.278;18.192;2023-02-27T12:53:45;100628.59;;;4.04;60.07
76794;BME280;65745;50.278;18.192;2023-02-27T12:56:23;100630.59;;;3.82;59.57
76794;BME280;65745;50.278;18.192;2023-02-27T12:59:02;100631.80;;;3.68;60.61
76794;BME280;65745;50.278;18.192;2023-02-27T13:01:44;100631.86;;;3.52;60.78
76794;BME280;65745;50.278;18.192;2023-02-27T13:04:30;100634.77;;;3.40;60.71
76794;BME280;65745;50.278;18.192;2023-02-27T13:07:11;100635.63;;;3.35;61.27
76794;BME280;65745;50.278;18.192;2023-02-27T13:09:52;100641.39;;;3.32;61.43
76794;BME280;65745;50.278;18.192;2023-02-27T13:12:31;100641.45;;;3.33;61.55
76794;BME280;65745;50.278;18.192;2023-02-27T13:15:17;100635.79;;;3.35;61.72
76794;BME280;65745;50.278;18.192;2023-02-27T13:17:56;100638.02;;;3.41;61.69
76794;BME280;65745;50.278;18.192;2023-02-27T13:20:35;100635.74;;;3.49;61.69
76794;BME280;65745;50.278;18.192;2023-02-27T13:23:16;100636.38;;;3.59;61.64
76794;BME280;65745;50.278;18.192;2023-02-27T13:25:51;100631.65;;;3.68;60.21
76794;BME280;65745;50.278;18.192;2023-02-27T13:28:26;100631.88;;;3.78;59.99
76794;BME280;65745;50.278;18.192;2023-02-27T13:31:06;100631.36;;;3.89;60.72
76794;BME280;65745;50.278;18.192;2023-02-27T13:33:44;100638.45;;;4.06;60.29
76794;BME280;65745;50.278;18.192;2023-02-27T13:36:24;100635.23;;;4.24;60.23
76794;BME280;65745;50.278;18.192;2023-02-27T13:38:59;100632.58;;;4.52;58.88
76794;BME280;65745;50.278;18.192;2023-02-27T13:41:39;100631.30;;;4.73;58.78
76794;BME280;65745;50.278;18.192;2023-02-27T13:44:39;100631.29;;;4.94;59.43
76794;BME280;65745;50.278;18.192;2023-02-27T13:50:48;100629.56;;;5.39;58.19
76794;BME280;65745;50.278;18.192;2023-02-27T13:53:21;100631.60;;;5.75;57.54
76794;BME280;65745;50.278;18.192;2023-02-27T13:55:57;100630.13;;;6.77;55.98
76794;BME280;65745;50.278;18.192;2023-02-27T13:58:49;100632.07;;;8.27;54.81
76794;BME280;65745;50.278;18.192;2023-02-27T14:01:25;100626.83;;;9.83;50.55
76794;BME280;65745;50.278;18.192;2023-02-27T14:04:01;100622.06;;;11.37;48.51